Time;durP1;ratioP1;P1;durP2;ratioP2;P2;SDS_P1;SDS_P2;PMS_P1;PMS_P2;Temp;Humidity;BMP_temperature;BMP_pressure;BME280_temperature;BME280_humidity;BME280_pressure;Samples;Min_cycle;Max_cycle;Signal;HPM_P1;HPM_P2
2022/10/29 07:42:04;;;;;;;11.60;4.03;;;;;;;17.61;66.08;97234.97;2114645;27;20229;-67
2022/10/29 07:43:05;;;;;;;21.97;6.20;;;;;;;17.91;65.12;97233.94;2086888;27;1242453;-67
2022/10/29 07:44:07;;;;;;;19.90;3.90;;;;;;;18.64;62.80;97230.03;2132495;27;20219;-67
2022/10/29 07:45:09;;;;;;;12.65;4.15;;;;;;;18.53;63.01;97241.31;2115895;28;20191;-67
2022/10/29 07:46:10;;;;;;;10.70;4.22;;;;;;;18.35;63.83;97239.94;2115145;28;20317;-67
2022/10/29 07:47:11;;;;;;;13.50;4.53;;;;;;;18.40;63.87;97243.94;2106796;28;20233;-70
2022/10/29 08:06:24;;;;;;;14.15;4.20;;;;;;;19.85;60.55;97232.22;2111769;28;20178;-68
2022/10/29 08:07:26;;;;;;;17.98;4.47;;;;;;;18.99;62.64;97240.00;2110708;28;20724;-68
2022/10/29 08:08:27;;;;;;;18.33;3.65;;;;;;;18.58;63.40;97238.38;2107646;28;20672;-68
2022/10/29 08:09:32;;;;;;;12.20;4.35;;;;;;;18.11;64.95;97244.06;2108444;28;20281;-68
2022/10/29 08:10:35;;;;;;;18.77;3.85;;;;;;;18.51;64.15;97234.44;2115459;28;20289;-66
2022/10/29 08:11:37;;;;;;;14.65;4.97;;;;;;;18.62;63.79;97237.22;2116881;28;20226;-68
2022/10/29 08:24:02;;;;;;;12.40;4.40;;;;;;;19.49;61.61;97245.34;2114472;28;20290;-68
2022/10/29 08:25:04;;;;;;;20.27;4.03;;;;;;;18.53;64.44;97243.97;2110849;28;20717;-68
2022/10/29 08:26:06;;;;;;;13.95;4.53;;;;;;;18.87;63.98;97239.03;2114581;28;20286;-68
2022/10/29 08:27:07;;;;;;;14.75;4.15;;;;;;;18.56;64.99;97238.47;2111431;27;20198;-68
2022/10/29 08:28:11;;;;;;;13.15;4.68;;;;;;;18.86;64.44;97244.44;2116649;28;20233;-68
2022/10/29 08:29:12;;;;;;;21.08;4.18;;;;;;;18.31;66.01;97244.56;2114168;28;20641;-68
2022/10/29 08:30:14;;;;;;;14.82;4.82;;;;;;;18.61;65.07;97232.84;2111359;28;20333;-68
2022/10/29 08:31:15;;;;;;;14.68;4.47;;;;;;;19.04;64.06;97244.97;2105344;28;20229;-68
2022/10/29 08:32:17;;;;;;;20.88;4.22;;;;;;;18.87;64.36;97238.19;2104304;28;20368;-67
2022/10/29 08:33:19;;;;;;;14.38;3.90;;;;;;;19.49;62.65;97237.41;2111642;28;20293;-68
2022/10/29 08:34:21;;;;;;;14.32;3.40;;;;;;;20.60;60.46;97241.66;2114805;28;20659;-67
2022/10/29 08:35:22;;;;;;;17.20;3.75;;;;;;;20.76;60.29;97237.88;2111781;28;20225;-67
2022/10/29 08:36:24;;;;;;;15.35;3.35;;;;;;;20.98;60.41;97237.91;2108816;28;20285;-67
2022/10/29 08:37:25;;;;;;;9.43;3.60;;;;;;;21.07;58.97;97230.22;2111439;28;20614;-67
2022/10/29 08:38:26;;;;;;;8.90;3.63;;;;;;;21.17;58.62;97228.53;2113745;28;20699;-67
2022/10/29 08:39:28;;;;;;;11.15;3.83;;;;;;;21.23;58.52;97230.69;2107022;27;20689;-67
2022/10/29 08:40:31;;;;;;;8.15;3.35;;;;;;;21.08;59.50;97227.44;2109223;28;20210;-67
2022/10/29 08:41:37;;;;;;;12.43;3.53;;;;;;;21.60;57.80;97232.25;2110959;28;20230;-67
2022/10/29 08:42:58;;;;;;;14.95;4.28;;;;;;;22.47;55.91;97228.72;2110603;28;20744;-67
2022/10/29 08:44:16;;;;;;;22.55;4.90;;;;;;;23.26;53.87;97238.88;2113026;28;20193;-67
2022/10/29 08:45:26;;;;;;;16.23;4.45;;;;;;;23.80;52.77;97244.78;2110327;28;20697;-67
2022/10/29 08:46:48;;;;;;;21.27;3.92;;;;;;;24.51;50.27;97240.25;2106618;28;20281;-67
2022/10/29 08:48:11;;;;;;;35.78;5.22;;;;;;;25.03;49.84;97244.41;2108497;28;20305;-67
2022/10/29 08:49:19;;;;;;;34.47;4.95;;;;;;;26.55;46.51;97241.28;2106540;28;20222;-68
2022/10/29 08:50:29;;;;;;;27.30;5.25;;;;;;;26.95;44.40;97241.81;2093779;28;20904;-67
2022/10/29 08:51:37;;;;;;;22.90;4.65;;;;;;;25.80;46.07;97231.72;2095564;28;20279;-67
2022/10/29 08:52:40;;;;;;;26.25;5.22;;;;;;;26.59;46.03;97255.22;2100692;28;20355;-67
2022/10/29 08:54:02;;;;;;;13.20;3.23;;;;;;;27.33;45.29;97251.22;2104484;28;20249;-67
2022/10/29 08:55:28;;;;;;;15.50;3.63;;;;;;;28.46;42.61;97251.97;2101317;28;20438;-65
2022/10/29 08:56:36;;;;;;;20.13;8.90;;;;;;;29.22;41.51;97254.44;2104522;28;20538;-66
2022/10/29 08:57:42;;;;;;;62.40;31.77;;;;;;;30.07;40.21;97252.97;2107620;28;20534;-70
2022/10/29 08:58:52;;;;;;;32.57;18.00;;;;;;;29.58;40.98;97252.16;2111167;28;20904;-67
2022/10/29 09:00:11;;;;;;;27.77;8.00;;;;;;;29.49;41.33;97250.50;2108119;28;20498;-69
2022/10/29 09:01:21;;;;;;;12.83;3.70;;;;;;;28.80;41.95;97254.50;2105665;28;20535;-69
2022/10/29 09:02:25;;;;;;;11.37;4.00;;;;;;;28.80;42.50;97251.81;2104359;28;20534;-69
2022/10/29 09:03:28;;;;;;;14.47;4.43;;;;;;;29.54;41.08;97244.63;2108624;28;20424;-69
2022/10/29 09:04:34;;;;;;;15.60;3.07;;;;;;;28.18;42.77;97222.75;2108531;28;21002;-66
2022/10/29 09:05:43;;;;;;;16.53;3.90;;;;;;;27.18;45.53;97250.97;2106678;28;20420;-66
2022/10/29 09:07:23;;;;;;;12.40;3.30;;;;;;;27.61;44.88;97245.69;2103753;28;20811;-64
2022/10/29 09:08:37;;;;;;;11.70;3.70;;;;;;;27.80;43.93;97246.44;2105596;28;20467;-67
2022/10/29 09:09:44;;;;;;;27.80;3.37;;;;;;;28.88;42.04;97242.91;2108973;28;20434;-66
2022/10/29 09:10:52;;;;;;;20.53;3.33;;;;;;;28.25;43.31;97242.56;2111323;28;20597;-67
2022/10/29 09:18:55;;;;;;;21.37;3.63;;;;;;;28.44;40.62;97243.22;2104845;28;20436;-66
2022/10/29 09:20:31;;;;;;;15.53;3.20;;;;;;;29.63;40.56;97243.56;2114074;27;20477;-69
2022/10/29 09:22:07;;;;;;;17.93;3.60;;;;;;;29.18;42.01;97240.50;2109149;27;20532;-70
2022/10/29 09:23:33;;;;;;;15.60;3.60;;;;;;;29.01;42.91;97234.31;2108666;28;20540;-70
2022/10/29 09:25:11;;;;;;;17.37;3.70;;;;;;;31.17;39.22;97242.84;2109006;28;20528;-70
2022/10/29 09:26:28;;;;;;;12.30;3.60;;;;;;;31.17;37.49;97234.75;2104636;28;21057;-70
2022/10/29 09:27:48;;;;;;;16.00;3.00;;;;;;;31.19;37.66;97238.13;2108504;28;21024;-70
2022/10/29 09:29:17;;;;;;;16.97;3.10;;;;;;;31.63;38.15;97236.44;2108081;28;20511;-70
2022/10/29 09:30:19;;;;;;;16.83;3.00;;;;;;;31.18;38.47;97239.13;2109069;28;20515;-70
2022/10/29 09:31:45;;;;;;;25.37;3.70;;;;;;;31.46;37.83;97236.63;2107828;28;20417;-70
2022/10/29 09:33:06;;;;;;;15.23;3.20;;;;;;;32.59;36.82;97235.44;2108850;28;20457;-70
2022/10/29 09:34:37;;;;;;;6.00;2.97;;;;;;;31.64;34.73;97227.34;2105914;28;20543;-69
2022/10/29 09:35:43;;;;;;;20.10;8.23;;;;;;;32.26;36.00;97230.56;2103686;28;20450;-70
2022/10/29 09:36:46;;;;;;;15.87;6.50;;;;;;;31.30;37.18;97234.97;2106345;28;20459;-70
2022/10/29 09:37:54;;;;;;;17.90;9.20;;;;;;;31.98;36.71;97221.28;2098839;28;20517;-67
2022/10/29 09:39:01;;;;;;;17.90;3.33;;;;;;;32.86;34.09;97223.84;2097434;28;20506;-68
2022/10/29 09:40:11;;;;;;;10.27;3.20;;;;;;;32.60;33.73;97202.81;2103003;28;20440;-68
2022/10/29 09:41:13;;;;;;;11.73;4.20;;;;;;;32.85;33.50;97232.16;2106046;28;20812;-67
2022/10/29 09:42:25;;;;;;;19.63;3.27;;;;;;;32.70;33.38;97226.81;2101914;28;20466;-68
2022/10/29 09:43:45;;;;;;;12.27;3.63;;;;;;;33.73;33.06;97228.13;2108945;28;20468;-67
2022/10/29 09:44:54;;;;;;;10.00;3.30;;;;;;;32.71;32.57;97223.91;2111924;28;20553;-67
2022/10/29 09:46:03;;;;;;;10.60;3.07;;;;;;;29.55;35.70;97224.78;2108299;28;21145;-67
2022/10/29 09:47:37;;;;;;;12.27;3.87;;;;;;;30.98;35.43;97219.94;2108097;28;21129;-68
2022/10/29 09:49:23;;;;;;;16.13;3.83;;;;;;;31.49;35.58;97227.31;2109539;28;20515;-68
2022/10/29 09:50:36;;;;;;;16.83;3.23;;;;;;;33.43;33.66;97225.69;2082327;28;20869;-68
2022/10/29 09:51:59;;;;;;;11.30;4.17;;;;;;;31.79;33.85;97232.72;2105020;28;21057;-68
2022/10/29 09:53:01;;;;;;;10.40;3.53;;;;;;;31.56;36.04;97230.94;2107086;28;20991;-67
2022/10/29 09:54:06;;;;;;;13.30;3.63;;;;;;;31.26;35.84;97234.50;2107684;28;20490;-67
2022/10/29 09:55:17;;;;;;;10.03;3.70;;;;;;;32.07;33.73;97233.69;2108425;27;20504;-67
2022/10/29 09:56:19;;;;;;;17.27;3.63;;;;;;;30.43;35.04;97234.34;2107816;28;20511;-67
2022/10/29 09:57:23;;;;;;;17.90;3.23;;;;;;;31.60;33.56;97221.44;2104894;28;20517;-67
2022/10/29 09:58:26;;;;;;;13.90;3.50;;;;;;;32.74;32.94;97224.59;2106677;28;20463;-67
2022/10/29 09:59:44;;;;;;;12.20;3.60;;;;;;;33.89;33.73;97237.78;2106991;28;20471;-67
2022/10/29 10:00:45;;;;;;;13.30;3.80;;;;;;;33.98;34.04;97240.09;2102843;28;20512;-67
2022/10/29 10:01:47;;;;;;;15.37;4.13;;;;;;;34.60;31.54;97221.06;2107345;28;20442;-67
2022/10/29 10:03:08;;;;;;;13.70;3.30;;;;;;;34.38;31.47;97236.69;2102048;28;20531;-67
2022/10/29 10:04:21;;;;;;;14.33;4.50;;;;;;;33.85;32.85;97215.69;2081712;28;21262;-69
2022/10/29 10:05:26;;;;;;;10.83;3.30;;;;;;;32.92;33.78;97210.56;2107168;28;21018;-67
2022/10/29 10:06:53;;;;;;;9.20;3.60;;;;;;;32.16;34.59;97223.56;2110728;28;20431;-68
2022/10/29 10:08:21;;;;;;;12.83;3.63;;;;;;;33.49;31.77;97225.69;2115273;27;20444;-68
2022/10/29 10:09:22;;;;;;;12.70;4.00;;;;;;;33.08;31.22;97223.78;2105695;27;20437;-68
2022/10/29 10:10:24;;;;;;;17.97;4.20;;;;;;;34.42;31.98;97218.13;2105030;28;20562;-68
2022/10/29 10:11:47;;;;;;;13.37;3.90;;;;;;;33.42;31.82;97213.19;2106843;28;20932;-68
2022/10/29 10:12:49;;;;;;;14.33;3.60;;;;;;;32.01;32.83;97223.63;2104090;28;20456;-68
2022/10/29 10:13:59;;;;;;;11.40;2.67;;;;;;;30.57;34.18;97224.69;2105729;28;20841;-68
2022/10/29 10:15:15;;;;;;;11.53;3.27;;;;;;;31.16;33.45;97228.53;2105979;28;20858;-68
2022/10/29 10:16:25;;;;;;;14.23;3.17;;;;;;;31.75;32.41;97221.44;2114332;27;20513;-69
2022/10/29 10:17:27;;;;;;;16.00;3.43;;;;;;;32.50;31.74;97223.94;2115120;27;20455;-68
2022/10/29 10:18:31;;;;;;;13.50;4.07;;;;;;;33.10;30.20;97219.00;2101840;27;20452;-68
2022/10/29 10:19:32;;;;;;;16.53;3.43;;;;;;;33.25;30.53;97218.88;2102904;28;20512;-68
2022/10/29 10:20:44;;;;;;;15.33;3.40;;;;;;;31.91;32.11;97217.72;2107165;28;20528;-69
2022/10/29 10:22:00;;;;;;;13.30;3.07;;;;;;;31.47;32.71;97180.81;2106979;28;20457;-68
2022/10/29 10:23:33;;;;;;;13.37;3.20;;;;;;;33.08;32.14;97199.44;2108024;28;20477;-68
2022/10/29 10:24:36;;;;;;;10.80;3.57;;;;;;;31.66;33.01;97207.22;2102516;27;20520;-68
2022/10/29 10:25:39;;;;;;;10.03;3.30;;;;;;;32.65;31.25;97192.25;2108931;27;20506;-68
2022/10/29 10:26:42;;;;;;;18.23;3.20;;;;;;;33.93;30.56;97203.81;2101167;28;20436;-68
2022/10/29 10:27:43;;;;;;;11.23;3.70;;;;;;;34.73;29.31;97222.09;2107885;28;20440;-68
2022/10/29 10:29:02;;;;;;;12.43;2.80;;;;;;;33.95;30.14;97218.00;2107699;28;21002;-68
2022/10/29 10:30:03;;;;;;;8.27;2.83;;;;;;;33.92;29.91;97218.44;2108292;28;20507;-68
2022/10/29 10:31:13;;;;;;;11.43;3.47;;;;;;;32.24;32.53;97222.66;2106929;28;20904;-68
2022/10/29 10:32:15;;;;;;;14.93;3.77;;;;;;;31.93;32.72;97215.63;2105245;28;20896;-68
2022/10/29 10:33:26;;;;;;;7.60;3.30;;;;;;;33.55;30.46;97226.78;2106792;28;20537;-68
2022/10/29 10:34:33;;;;;;;9.70;3.40;;;;;;;34.85;29.88;97225.03;2102762;28;20420;-68
2022/10/29 10:35:36;;;;;;;24.23;3.60;;;;;;;34.96;29.00;97225.25;2104782;28;20464;-67
2022/10/29 10:36:41;;;;;;;21.30;3.10;;;;;;;35.68;28.48;97224.50;2104147;28;20906;-68
2022/10/29 10:37:42;;;;;;;14.33;2.97;;;;;;;35.75;28.88;97221.72;2106305;28;21184;-68
2022/10/29 10:38:47;;;;;;;19.10;3.33;;;;;;;35.74;28.33;97223.59;2106778;28;20969;-68
2022/10/29 10:40:01;;;;;;;11.30;3.67;;;;;;;33.99;31.13;97222.81;2107446;28;20427;-68
2022/10/29 10:41:06;;;;;;;15.00;3.80;;;;;;;32.69;31.87;97214.31;2108968;28;20458;-68
2022/10/29 10:42:27;;;;;;;15.73;2.70;;;;;;;32.72;32.22;97213.91;2104857;28;20450;-68
2022/10/29 10:43:28;;;;;;;14.17;3.80;;;;;;;34.11;31.19;97214.91;2102756;28;20427;-68
2022/10/29 10:44:30;;;;;;;14.80;3.80;;;;;;;34.94;30.53;97202.09;2106535;28;20960;-68
2022/10/29 10:45:36;;;;;;;22.70;4.20;;;;;;;34.83;30.05;97217.13;2107100;28;20463;-68
2022/10/29 10:46:43;;;;;;;15.97;3.40;;;;;;;35.13;29.86;97220.19;2115740;27;20516;-68
2022/10/29 10:47:51;;;;;;;11.53;3.20;;;;;;;35.09;29.38;97199.16;2115986;27;20481;-68
2022/10/29 10:54:05;;;;;;;8.30;3.10;;;;;;;32.42;33.28;97197.03;2101163;28;21033;-68
2022/10/29 10:55:24;;;;;;;13.67;3.40;;;;;;;32.49;33.63;97197.94;2103215;28;20460;-68
2022/10/29 10:56:26;;;;;;;17.57;3.73;;;;;;;30.95;35.61;97188.78;2109434;28;20439;-68
2022/10/29 10:57:40;;;;;;;13.33;3.50;;;;;;;31.78;33.95;97185.97;2108049;28;20540;-68
2022/10/29 10:58:49;;;;;;;16.83;3.67;;;;;;;30.17;36.16;97190.78;2105404;28;20535;-68
2022/10/29 10:59:56;;;;;;;14.00;2.97;;;;;;;32.40;33.81;97181.88;2102489;28;20503;-68
2022/10/29 11:01:07;;;;;;;12.40;3.50;;;;;;;32.04;33.98;97174.63;2102589;28;20943;-68
2022/10/29 11:02:21;;;;;;;11.03;3.50;;;;;;;32.42;32.54;97178.97;2102006;28;20509;-67
2022/10/29 11:03:30;;;;;;;19.13;3.90;;;;;;;33.24;32.11;97182.03;2106412;28;20462;-67
2022/10/29 11:04:38;;;;;;;13.13;3.80;;;;;;;33.09;31.78;97181.34;2105385;28;20426;-67
2022/10/29 11:06:00;;;;;;;16.60;3.10;;;;;;;33.24;32.14;97173.09;2098049;28;20457;-67
2022/10/29 11:12:08;;;;;;;13.60;3.23;;;;;;;33.09;32.49;97184.03;2105742;28;20906;-67
2022/10/29 11:13:19;;;;;;;19.13;4.10;;;;;;;33.57;31.48;97186.81;2102912;28;20467;-67
2022/10/29 11:14:31;;;;;;;14.97;3.50;;;;;;;32.94;32.94;97181.44;2104820;28;20469;-67
2022/10/29 11:16:11;;;;;;;16.03;2.80;;;;;;;29.59;37.10;97188.44;2105241;28;20914;-67
2022/10/29 11:17:26;;;;;;;12.33;3.50;;;;;;;28.99;37.70;97174.53;2087940;28;21230;-67
2022/10/29 11:25:23;;;;;;;14.87;3.97;;;;;;;30.23;36.26;97168.53;2103807;28;20413;-67
2022/10/29 11:26:35;;;;;;;11.23;3.13;;;;;;;30.50;35.44;97172.56;2106740;28;20442;-67
2022/10/29 11:27:41;;;;;;;16.13;3.50;;;;;;;29.93;37.27;97163.06;2095011;28;20455;-67
2022/10/29 11:28:54;;;;;;;14.37;4.30;;;;;;;31.56;34.48;97158.09;2104105;28;20520;-67
2022/10/29 11:30:08;;;;;;;11.67;4.27;;;;;;;31.58;35.31;97167.66;2108171;28;21017;-67
2022/10/29 11:31:21;;;;;;;15.80;3.30;;;;;;;32.71;33.17;97159.03;2108722;28;20450;-67
2022/10/29 11:32:32;;;;;;;8.70;2.57;;;;;;;32.56;32.90;97172.63;2105081;28;21264;-67
2022/10/29 11:33:47;;;;;;;14.00;3.80;;;;;;;31.91;34.13;97151.03;2109888;28;20469;-67
2022/10/29 11:35:03;;;;;;;21.00;3.97;;;;;;;29.26;37.40;97164.34;2108426;28;20479;-67
2022/10/29 11:36:33;;;;;;;17.53;4.07;;;;;;;29.74;37.00;97165.16;2105240;28;20430;-66
2022/10/29 11:37:55;;;;;;;11.53;2.77;;;;;;;30.91;35.18;97163.22;2095370;28;20929;-67
2022/10/29 11:39:08;;;;;;;15.73;3.50;;;;;;;31.53;33.89;97153.09;2107737;28;20503;-67
2022/10/29 11:40:20;;;;;;;11.20;3.70;;;;;;;32.13;33.56;97152.91;2106092;28;20545;-67
2022/10/29 11:41:45;;;;;;;13.93;3.60;;;;;;;32.96;32.59;97158.59;2107632;28;20510;-67
2022/10/29 11:42:50;;;;;;;13.07;3.60;;;;;;;32.28;33.80;97153.69;2104740;28;20556;-67
2022/10/29 11:43:52;;;;;;;16.67;3.83;;;;;;;32.82;33.26;97154.13;2104078;28;20938;-67
2022/10/29 11:44:53;;;;;;;21.33;3.87;;;;;;;32.91;33.38;97144.81;2102335;28;20454;-67
2022/10/29 11:46:07;;;;;;;14.97;3.10;;;;;;;31.38;34.58;97151.22;2106533;28;20562;-72
2022/10/29 11:47:42;;;;;;;10.73;3.37;;;;;;;30.99;35.36;97149.66;2105902;28;20833;-66
2022/10/29 11:54:05;;;;;;;19.37;4.20;;;;;;;31.37;34.36;97146.84;2106205;28;20440;-67
2022/10/29 11:55:24;;;;;;;18.03;3.33;;;;;;;31.48;34.35;97142.84;2107545;28;20457;-67
2022/10/29 11:56:38;;;;;;;11.33;3.03;;;;;;;30.73;34.41;97115.09;2106556;28;20440;-68
2022/10/29 11:57:53;;;;;;;9.20;3.20;;;;;;;30.42;34.70;97108.81;2102892;28;20458;-67
2022/10/29 11:59:05;;;;;;;13.60;3.53;;;;;;;30.60;34.12;97119.25;2103753;28;20526;-67
2022/10/29 12:00:17;;;;;;;10.93;3.20;;;;;;;31.30;33.77;97127.09;2094930;28;20706;-67
2022/10/29 12:01:35;;;;;;;10.97;2.70;;;;;;;31.14;34.51;97127.28;2102437;28;20458;-67
2022/10/29 12:03:05;;;;;;;9.43;2.47;;;;;;;30.25;34.29;97118.03;2113088;28;21094;-67
2022/10/29 12:04:16;;;;;;;14.37;3.87;;;;;;;29.99;36.06;97127.31;2108825;28;20444;-67
2022/10/29 12:05:49;;;;;;;10.83;3.77;;;;;;;31.20;34.79;97123.84;2104893;28;20946;-67
2022/10/29 12:07:14;;;;;;;11.63;3.03;;;;;;;32.23;34.06;97123.75;2113991;28;20477;-70
2022/10/29 12:08:34;;;;;;;10.63;2.97;;;;;;;31.06;34.77;97118.25;2108172;28;20573;-69
2022/10/29 12:09:44;;;;;;;13.50;3.57;;;;;;;30.37;36.27;97116.59;2106996;28;20949;-70
2022/10/29 12:11:09;;;;;;;18.23;3.57;;;;;;;30.81;35.60;97117.69;2109300;28;20518;-70
2022/10/29 12:12:19;;;;;;;14.97;3.17;;;;;;;30.28;35.69;97117.66;2107601;28;20967;-70
2022/10/29 12:14:00;;;;;;;15.43;3.70;;;;;;;30.33;35.39;97114.44;2105537;28;20875;-70
2022/10/29 12:15:20;;;;;;;11.93;3.33;;;;;;;29.72;36.51;97115.22;2096729;28;20798;-70
2022/10/29 12:16:39;;;;;;;12.47;3.20;;;;;;;30.66;35.14;97120.38;2103473;28;20501;-67
2022/10/29 12:17:55;;;;;;;15.10;3.80;;;;;;;31.56;34.38;97102.25;2109218;28;20531;-68
2022/10/29 12:19:02;;;;;;;18.73;3.30;;;;;;;31.62;34.78;97108.75;2107141;28;20480;-67
2022/10/29 12:20:18;;;;;;;20.03;3.43;;;;;;;30.38;35.31;97103.94;2106533;28;20509;-68
2022/10/29 12:22:02;;;;;;;19.37;4.93;;;;;;;29.83;36.65;97109.44;2115650;27;20766;-68
2022/10/29 12:23:24;;;;;;;14.57;3.20;;;;;;;30.83;35.78;97099.47;2108721;28;20886;-68
2022/10/29 12:31:07;;;;;;;12.10;3.50;;;;;;;31.14;36.76;97093.06;2117339;27;20923;-68
2022/10/29 12:32:55;;;;;;;11.67;3.43;;;;;;;29.74;36.58;97089.81;2116878;27;20953;-67
2022/10/29 12:34:19;;;;;;;12.83;3.40;;;;;;;28.67;39.41;97083.09;2107412;28;20434;-67
2022/10/29 12:35:58;;;;;;;12.53;3.50;;;;;;;30.11;38.54;97079.28;2108506;28;20534;-68
2022/10/29 12:37:12;;;;;;;19.37;4.17;;;;;;;29.85;37.30;97083.16;2096924;28;21076;-68
2022/10/29 12:38:36;;;;;;;12.60;3.17;;;;;;;30.56;36.20;97076.69;2105893;28;20436;-67
2022/10/29 12:39:47;;;;;;;15.13;3.50;;;;;;;29.97;36.84;97073.69;2105469;28;20512;-68
2022/10/29 12:40:57;;;;;;;11.00;3.10;;;;;;;29.58;37.82;97069.22;2104623;28;20470;-68
2022/10/29 12:42:31;;;;;;;15.40;3.57;;;;;;;28.54;39.89;97076.56;2104178;28;20452;-68
2022/10/29 12:43:35;;;;;;;10.77;3.23;;;;;;;28.50;40.00;97059.94;2085723;28;20560;-68
2022/10/29 12:44:45;;;;;;;16.43;3.40;;;;;;;28.90;39.20;97050.09;2102630;28;20510;-67
2022/10/29 12:46:18;;;;;;;12.80;2.80;;;;;;;28.37;40.79;97068.53;2102389;28;20420;-67
2022/10/29 12:47:34;;;;;;;26.17;3.43;;;;;;;28.99;38.96;97065.16;2094498;28;20514;-67
2022/10/29 12:48:41;;;;;;;16.83;3.37;;;;;;;29.13;39.33;97068.97;2097073;28;20928;-67
2022/10/29 12:49:57;;;;;;;10.30;2.57;;;;;;;28.89;39.58;97063.72;2105740;28;20462;-67
2022/10/29 12:51:07;;;;;;;17.07;4.10;;;;;;;28.66;39.54;97034.88;2106152;28;21145;-68
2022/10/29 12:52:37;;;;;;;14.60;2.90;;;;;;;28.72;40.06;97062.94;2106773;28;20535;-67
2022/10/29 12:54:06;;;;;;;8.87;3.50;;;;;;;28.05;41.30;97058.66;2105736;28;20525;-67
2022/10/29 12:55:11;;;;;;;9.93;2.57;;;;;;;28.75;41.48;97062.59;2092435;28;20484;-67
2022/10/29 12:56:14;;;;;;;13.90;2.97;;;;;;;28.87;40.23;97061.19;2090820;28;20579;-67
2022/10/29 12:57:16;;;;;;;17.30;3.53;;;;;;;28.97;40.35;97055.59;2105876;28;20777;-67
2022/10/29 12:58:51;;;;;;;11.60;3.40;;;;;;;29.37;39.73;97052.91;2107584;28;20431;-67
2022/10/29 12:59:53;;;;;;;15.87;3.27;;;;;;;29.85;39.54;97050.88;2108053;28;20411;-67
2022/10/29 13:00:54;;;;;;;18.70;3.77;;;;;;;29.54;39.37;97054.47;2104304;28;20544;-67
2022/10/29 13:02:16;;;;;;;12.00;2.83;;;;;;;29.29;40.75;97051.09;2107234;28;20424;-67
2022/10/29 13:03:51;;;;;;;11.90;3.23;;;;;;;28.78;42.02;97055.00;2107395;28;20427;-68
2022/10/29 13:05:05;;;;;;;13.70;2.80;;;;;;;28.02;43.87;97039.19;2105923;28;20511;-68
2022/10/29 13:06:42;;;;;;;17.00;3.22;;;;;;;28.51;42.97;97046.34;2104597;28;20686;-68
2022/10/29 13:07:46;;;;;;;11.90;3.53;;;;;;;28.51;42.65;97042.81;2083643;28;20312;-68
2022/10/29 13:08:55;;;;;;;12.80;2.90;;;;;;;27.74;43.90;97038.69;2110533;27;21032;-67
2022/10/29 13:10:21;;;;;;;9.43;2.75;;;;;;;27.81;44.42;97047.75;2108878;28;20548;-68
2022/10/29 13:11:31;;;;;;;14.82;3.25;;;;;;;28.18;43.59;97049.09;2110236;27;20190;-67
2022/10/29 13:12:54;;;;;;;14.05;3.35;;;;;;;28.41;43.16;97045.69;2111024;27;20236;-67
2022/10/29 13:14:00;;;;;;;13.25;3.47;;;;;;;28.18;44.05;97043.72;2116913;27;20199;-67
2022/10/29 13:15:14;;;;;;;11.30;3.10;;;;;;;28.14;43.60;97039.72;2117173;27;20199;-67
2022/10/29 13:16:20;;;;;;;14.60;3.38;;;;;;;27.39;45.15;97016.56;2115965;27;20479;-67
2022/10/29 13:29:05;;;;;;;10.82;3.58;;;;;;;27.46;45.69;97028.28;2116991;27;20218;-67
2022/10/29 13:30:25;;;;;;;13.52;3.45;;;;;;;26.70;46.89;97019.31;2117235;27;20825;-67
2022/10/29 13:31:29;;;;;;;14.52;4.03;;;;;;;26.81;46.95;97027.09;2107690;28;20283;-67
2022/10/29 13:32:38;;;;;;;14.25;3.47;;;;;;;27.23;45.82;97040.63;2108730;27;20252;-67
2022/10/29 13:33:39;;;;;;;21.63;4.50;;;;;;;27.08;46.51;97030.53;2111254;27;20647;-67
2022/10/29 13:34:55;;;;;;;19.92;3.72;;;;;;;26.79;45.65;97034.47;2110736;27;20202;-67
2022/10/29 13:35:58;;;;;;;10.98;3.53;;;;;;;26.99;45.84;97035.00;2117142;27;20236;-67
2022/10/29 13:37:37;;;;;;;15.73;3.67;;;;;;;26.61;45.63;97031.81;2099692;28;20327;-67
2022/10/29 13:38:48;;;;;;;13.43;3.35;;;;;;;26.27;46.65;97030.00;2108733;27;20282;-67
2022/10/29 13:40:22;;;;;;;16.25;3.30;;;;;;;26.72;45.21;97030.72;2117447;27;20275;-67
2022/10/29 13:41:38;;;;;;;12.63;3.33;;;;;;;26.85;45.49;97022.25;2107872;28;20205;-67
2022/10/29 13:42:41;;;;;;;8.52;3.53;;;;;;;26.36;46.97;97022.81;2101089;28;20314;-67
2022/10/29 13:43:57;;;;;;;9.10;2.40;;;;;;;26.48;46.28;97028.75;2109131;28;20222;-67
2022/10/29 13:44:59;;;;;;;14.73;3.58;;;;;;;26.30;45.32;97024.31;2119249;27;20289;-67
2022/10/29 13:46:13;;;;;;;9.02;3.47;;;;;;;26.43;45.46;97023.88;2116283;27;20700;-67
2022/10/29 13:47:21;;;;;;;12.80;3.92;;;;;;;26.32;45.90;97019.66;2109051;28;20298;-67
2022/10/29 13:48:30;;;;;;;7.97;2.72;;;;;;;26.58;46.45;97026.81;2104783;28;20283;-67
2022/10/29 13:49:52;;;;;;;17.40;2.90;;;;;;;26.58;45.66;97026.81;2106390;28;20195;-67
2022/10/29 13:50:57;;;;;;;11.45;2.78;;;;;;;26.53;46.32;97005.84;2108114;28;20194;-67
2022/10/29 13:52:07;;;;;;;11.73;3.05;;;;;;;26.54;45.63;97020.09;2105556;27;20194;-67
2022/10/29 13:53:19;;;;;;;15.32;3.65;;;;;;;26.01;46.04;97022.75;2111157;28;20201;-67
2022/10/29 13:54:25;;;;;;;15.15;3.40;;;;;;;25.89;46.11;97027.53;2109017;28;20214;-67
2022/10/29 13:55:32;;;;;;;24.17;3.70;;;;;;;26.07;46.00;97022.16;2106928;28;20203;-67
2022/10/29 13:56:43;;;;;;;13.65;3.35;;;;;;;26.14;45.65;97022.38;2106764;28;20311;-67
2022/10/29 13:58:06;;;;;;;11.75;3.45;;;;;;;26.17;45.70;97022.06;2105465;28;20303;-67
2022/10/29 13:59:22;;;;;;;18.30;3.08;;;;;;;26.24;44.41;97014.25;2105662;28;20328;-67
2022/10/29 14:00:24;;;;;;;13.88;3.00;;;;;;;26.22;44.53;97025.09;2106324;28;20239;-67
2022/10/29 14:01:27;;;;;;;10.95;3.20;;;;;;;26.15;44.08;97004.50;2110905;28;20352;-67
2022/10/29 14:02:46;;;;;;;19.08;3.08;;;;;;;26.33;45.02;97025.84;2109541;28;20215;-67
2022/10/29 14:03:55;;;;;;;16.05;3.88;;;;;;;26.54;45.14;97028.13;2104166;28;20202;-67
2022/10/29 14:11:40;;;;;;;19.95;3.92;;;;;;;26.44;44.99;97016.69;2104584;28;20174;-68
2022/10/29 14:12:48;;;;;;;14.57;3.40;;;;;;;26.54;45.12;97023.59;2108059;28;20251;-69
2022/10/29 14:13:53;;;;;;;13.18;3.47;;;;;;;26.49;43.68;97023.25;2109408;28;20229;-70
2022/10/29 14:15:09;;;;;;;10.43;2.80;;;;;;;26.05;41.93;97016.13;2115515;27;20198;-69
2022/10/29 14:16:12;;;;;;;12.55;3.38;;;;;;;25.74;44.04;97026.41;2110644;27;20786;-69
2022/10/29 14:17:19;;;;;;;12.55;3.78;;;;;;;25.72;45.93;97015.84;2102949;28;20314;-69
2022/10/29 14:18:26;;;;;;;18.23;3.80;;;;;;;25.61;43.66;97009.91;2104676;28;20215;-69
2022/10/29 14:19:28;;;;;;;15.93;3.67;;;;;;;25.49;41.96;97018.16;2110027;28;20199;-69
2022/10/29 14:20:29;;;;;;;12.60;2.85;;;;;;;25.41;42.18;97012.75;2106880;28;20199;-69
2022/10/29 14:21:37;;;;;;;22.52;3.30;;;;;;;25.46;43.22;97018.47;2108436;28;20798;-69
2022/10/29 14:22:39;;;;;;;12.30;3.45;;;;;;;25.35;44.30;97016.00;2103402;28;20452;-69
2022/10/29 14:29:05;;;;;;;20.85;4.15;;;;;;;24.97;46.86;97020.63;2101334;28;20207;-69
2022/10/29 14:30:17;;;;;;;19.70;4.43;;;;;;;24.93;46.87;97010.22;2108030;28;20198;-69
2022/10/29 14:31:23;;;;;;;16.13;3.47;;;;;;;24.88;46.76;97017.03;2105931;28;20218;-69
2022/10/29 14:32:25;;;;;;;15.13;3.88;;;;;;;24.74;45.43;97015.69;2106088;28;20223;-69
2022/10/29 14:33:35;;;;;;;26.63;4.30;;;;;;;24.57;47.61;97006.59;2103122;28;20229;-69
2022/10/29 14:34:37;;;;;;;19.77;3.67;;;;;;;24.54;48.09;97004.25;2107938;28;20198;-69
2022/10/29 14:35:38;;;;;;;11.70;3.10;;;;;;;24.52;47.88;97011.53;2102953;28;20353;-69
2022/10/29 14:36:44;;;;;;;14.48;3.25;;;;;;;24.47;48.19;97014.66;2110093;28;20249;-69
2022/10/29 14:37:48;;;;;;;15.93;3.40;;;;;;;24.31;48.04;96991.28;2105936;28;20313;-69
2022/10/29 14:38:57;;;;;;;15.70;3.25;;;;;;;24.47;47.37;97017.34;2103705;28;20223;-69
2022/10/29 14:40:05;;;;;;;19.67;3.75;;;;;;;24.41;46.98;97013.41;2103345;28;20960;-69
2022/10/29 14:41:06;;;;;;;21.90;3.30;;;;;;;24.29;48.09;97004.75;2102331;28;20211;-69
2022/10/29 14:42:37;;;;;;;14.00;3.20;;;;;;;24.23;46.01;97009.84;2104826;28;20195;-69
2022/10/29 14:43:39;;;;;;;26.40;3.45;;;;;;;24.20;46.92;97008.31;2101473;28;20231;-69
2022/10/29 14:44:47;;;;;;;25.05;3.72;;;;;;;24.17;47.33;96997.91;2104182;28;20233;-69
2022/10/29 14:45:49;;;;;;;20.17;4.30;;;;;;;24.10;48.45;97008.34;2106152;28;20277;-69